METAR AND TAF INFORMATION
METAR FOR SKEJ
ADDS - METARS form results

(1934 UTC 26 April 2018)
Data provider http://aviationweather.gov/adds/metars/
 
METAR text: SKEJ 261900Z 26004KT 9999 SCT015 32/24 A2975
Conditions at: SKEJ (BARRANCABERMEJA , CO) observed 1900 UTC 26 April 2018
Temperature: 32.0°C (90°F)
Dewpoint: 24.0°C (75°F) [RH = 63%]
Pressure (altimeter): 29.75 inches Hg (1007.5 mb)
Winds: from the W (260 degrees) at 5 MPH (4 knots; 2.1 m/s)
Visibility: 6 or more miles (10+ km)
Ceiling: at least 12,000 feet AGL
Clouds: scattered clouds at 1500 feet AGL
Weather: no significant weather observed at this time

 AIRPORT MAP

 RUNWAY INFORMATION
Runway 04 Runway length 5905 ft Runway width 148 ft
Runway elevation 401 ft Runway displaced threshold 0 ft Runway heading 31
Runway 22 Runway length 5905 ft Runway width 148 ft
Runway elevation 408 ft Runway displaced threshold 0 ft Runway heading 211

 AIRPORT FREQUENCIES
Type APP Name BUCARAMANG Frequency 119 MHZ
Type RDO Name BARRANCABE Frequency 348.8 MHZ
Type TWR Name TWR Frequency 118.45 MHZ

 AIRPORT NEAR NAVIGATION AIDS
Type VOR-DME Name Barrancabermeja Frequency 115900 KHZ



v2.6.1